sensor_id;sensor_type;location;lat;lon;timestamp;P1;durP1;ratioP1;P2;durP2;ratioP2
79135;SDS011;68533;51.090;17.216;2024-03-08T00:01:38;32.55;;;14.32;;
79135;SDS011;68533;51.090;17.216;2024-03-08T00:05:03;31.77;;;15.15;;
79135;SDS011;68533;51.090;17.216;2024-03-08T00:08:43;33.97;;;13.38;;
79135;SDS011;68533;51.090;17.216;2024-03-08T00:12:09;30.83;;;14.00;;
79135;SDS011;68533;51.090;17.216;2024-03-08T00:15:34;34.60;;;14.48;;
79135;SDS011;68533;51.090;17.216;2024-03-08T00:19:01;36.50;;;14.98;;
79135;SDS011;68533;51.090;17.216;2024-03-08T00:22:26;39.50;;;15.77;;
79135;SDS011;68533;51.090;17.216;2024-03-08T00:25:51;39.00;;;13.30;;
79135;SDS011;68533;51.090;17.216;2024-03-08T00:29:15;32.15;;;13.63;;
79135;SDS011;68533;51.090;17.216;2024-03-08T00:32:48;39.33;;;16.10;;
79135;SDS011;68533;51.090;17.216;2024-03-08T00:36:13;40.03;;;14.90;;
79135;SDS011;68533;51.090;17.216;2024-03-08T00:39:37;33.35;;;13.57;;
79135;SDS011;68533;51.090;17.216;2024-03-08T00:43:04;32.03;;;12.57;;
79135;SDS011;68533;51.090;17.216;2024-03-08T00:46:30;39.75;;;14.85;;
79135;SDS011;68533;51.090;17.216;2024-03-08T00:49:54;39.58;;;15.23;;
79135;SDS011;68533;51.090;17.216;2024-03-08T00:53:19;35.83;;;14.93;;
79135;SDS011;68533;51.090;17.216;2024-03-08T00:56:44;30.08;;;13.10;;
79135;SDS011;68533;51.090;17.216;2024-03-08T01:00:09;34.15;;;14.25;;
79135;SDS011;68533;51.090;17.216;2024-03-08T01:03:35;33.08;;;13.43;;
79135;SDS011;68533;51.090;17.216;2024-03-08T01:07:00;44.53;;;12.52;;
79135;SDS011;68533;51.090;17.216;2024-03-08T01:10:25;32.20;;;13.05;;
79135;SDS011;68533;51.090;17.216;2024-03-08T01:13:51;28.52;;;13.30;;
79135;SDS011;68533;51.090;17.216;2024-03-08T01:17:15;30.30;;;12.77;;
79135;SDS011;68533;51.090;17.216;2024-03-08T01:20:41;34.42;;;13.50;;
79135;SDS011;68533;51.090;17.216;2024-03-08T01:24:07;36.83;;;14.73;;
79135;SDS011;68533;51.090;17.216;2024-03-08T01:27:32;37.85;;;14.48;;
79135;SDS011;68533;51.090;17.216;2024-03-08T01:30:57;38.05;;;15.30;;
79135;SDS011;68533;51.090;17.216;2024-03-08T01:34:22;36.38;;;14.23;;
79135;SDS011;68533;51.090;17.216;2024-03-08T01:37:48;39.33;;;15.90;;
79135;SDS011;68533;51.090;17.216;2024-03-08T01:41:14;41.67;;;15.88;;
79135;SDS011;68533;51.090;17.216;2024-03-08T01:44:43;40.42;;;14.25;;
79135;SDS011;68533;51.090;17.216;2024-03-08T01:48:07;34.03;;;14.25;;
79135;SDS011;68533;51.090;17.216;2024-03-08T01:51:32;43.00;;;15.30;;
79135;SDS011;68533;51.090;17.216;2024-03-08T01:55:00;38.55;;;14.88;;
79135;SDS011;68533;51.090;17.216;2024-03-08T01:58:29;30.60;;;13.55;;
79135;SDS011;68533;51.090;17.216;2024-03-08T02:01:55;42.58;;;16.85;;
79135;SDS011;68533;51.090;17.216;2024-03-08T02:05:20;45.90;;;15.90;;
79135;SDS011;68533;51.090;17.216;2024-03-08T02:08:46;41.03;;;16.35;;
79135;SDS011;68533;51.090;17.216;2024-03-08T02:12:12;38.53;;;15.20;;
79135;SDS011;68533;51.090;17.216;2024-03-08T02:15:50;44.05;;;16.55;;
79135;SDS011;68533;51.090;17.216;2024-03-08T02:19:17;38.58;;;14.73;;
79135;SDS011;68533;51.090;17.216;2024-03-08T02:22:41;38.78;;;13.57;;
79135;SDS011;68533;51.090;17.216;2024-03-08T02:26:06;43.83;;;16.63;;
79135;SDS011;68533;51.090;17.216;2024-03-08T02:29:33;39.20;;;14.82;;
79135;SDS011;68533;51.090;17.216;2024-03-08T02:33:00;34.47;;;13.50;;
79135;SDS011;68533;51.090;17.216;2024-03-08T02:36:25;42.58;;;16.92;;
79135;SDS011;68533;51.090;17.216;2024-03-08T02:39:49;34.08;;;13.95;;
79135;SDS011;68533;51.090;17.216;2024-03-08T02:43:17;41.47;;;14.35;;
79135;SDS011;68533;51.090;17.216;2024-03-08T02:46:41;37.25;;;15.48;;
79135;SDS011;68533;51.090;17.216;2024-03-08T02:50:07;34.13;;;16.38;;
79135;SDS011;68533;51.090;17.216;2024-03-08T02:56:56;30.33;;;12.85;;
79135;SDS011;68533;51.090;17.216;2024-03-08T03:03:52;30.98;;;14.13;;
79135;SDS011;68533;51.090;17.216;2024-03-08T03:07:18;45.58;;;12.82;;
79135;SDS011;68533;51.090;17.216;2024-03-08T03:10:42;36.47;;;13.07;;
79135;SDS011;68533;51.090;17.216;2024-03-08T03:14:10;39.33;;;15.15;;
79135;SDS011;68533;51.090;17.216;2024-03-08T03:17:35;39.42;;;14.63;;
79135;SDS011;68533;51.090;17.216;2024-03-08T03:21:00;35.38;;;13.45;;
79135;SDS011;68533;51.090;17.216;2024-03-08T03:24:24;38.47;;;13.13;;
79135;SDS011;68533;51.090;17.216;2024-03-08T03:27:52;36.25;;;13.52;;
79135;SDS011;68533;51.090;17.216;2024-03-08T03:31:19;33.80;;;14.93;;
79135;SDS011;68533;51.090;17.216;2024-03-08T03:34:46;44.25;;;16.02;;
79135;SDS011;68533;51.090;17.216;2024-03-08T03:38:13;26.63;;;11.82;;
79135;SDS011;68533;51.090;17.216;2024-03-08T03:41:38;33.95;;;14.13;;
79135;SDS011;68533;51.090;17.216;2024-03-08T03:45:05;30.25;;;11.48;;
79135;SDS011;68533;51.090;17.216;2024-03-08T03:48:33;34.50;;;14.25;;
79135;SDS011;68533;51.090;17.216;2024-03-08T03:51:59;41.65;;;12.60;;
79135;SDS011;68533;51.090;17.216;2024-03-08T03:55:23;35.67;;;15.50;;
79135;SDS011;68533;51.090;17.216;2024-03-08T03:58:50;42.67;;;16.15;;
79135;SDS011;68533;51.090;17.216;2024-03-08T04:02:17;36.33;;;16.90;;
79135;SDS011;68533;51.090;17.216;2024-03-08T04:05:42;33.85;;;13.23;;
79135;SDS011;68533;51.090;17.216;2024-03-08T04:09:07;37.88;;;16.10;;
79135;SDS011;68533;51.090;17.216;2024-03-08T04:12:33;39.33;;;14.25;;
79135;SDS011;68533;51.090;17.216;2024-03-08T04:15:58;32.30;;;13.68;;
79135;SDS011;68533;51.090;17.216;2024-03-08T04:19:23;41.60;;;15.48;;
79135;SDS011;68533;51.090;17.216;2024-03-08T04:22:51;34.17;;;14.40;;
79135;SDS011;68533;51.090;17.216;2024-03-08T04:26:15;34.83;;;16.10;;
79135;SDS011;68533;51.090;17.216;2024-03-08T04:29:40;45.53;;;15.68;;
79135;SDS011;68533;51.090;17.216;2024-03-08T04:33:06;39.75;;;15.20;;
79135;SDS011;68533;51.090;17.216;2024-03-08T04:36:30;39.45;;;16.30;;
79135;SDS011;68533;51.090;17.216;2024-03-08T04:39:58;39.88;;;15.52;;
79135;SDS011;68533;51.090;17.216;2024-03-08T04:43:24;39.90;;;15.77;;
79135;SDS011;68533;51.090;17.216;2024-03-08T04:46:50;33.63;;;12.25;;
79135;SDS011;68533;51.090;17.216;2024-03-08T04:50:15;47.35;;;15.80;;
79135;SDS011;68533;51.090;17.216;2024-03-08T04:53:39;35.53;;;14.32;;
79135;SDS011;68533;51.090;17.216;2024-03-08T04:57:04;34.00;;;14.07;;
79135;SDS011;68533;51.090;17.216;2024-03-08T05:00:34;43.28;;;16.73;;
79135;SDS011;68533;51.090;17.216;2024-03-08T05:03:59;30.50;;;12.60;;
79135;SDS011;68533;51.090;17.216;2024-03-08T05:07:23;37.67;;;15.75;;
79135;SDS011;68533;51.090;17.216;2024-03-08T05:10:49;37.35;;;15.98;;
79135;SDS011;68533;51.090;17.216;2024-03-08T05:14:15;23.65;;;11.02;;
79135;SDS011;68533;51.090;17.216;2024-03-08T05:17:52;37.40;;;13.73;;
79135;SDS011;68533;51.090;17.216;2024-03-08T05:21:26;40.85;;;14.00;;
79135;SDS011;68533;51.090;17.216;2024-03-08T05:25:01;34.13;;;14.38;;
79135;SDS011;68533;51.090;17.216;2024-03-08T05:28:34;40.97;;;14.35;;
79135;SDS011;68533;51.090;17.216;2024-03-08T05:32:01;35.97;;;13.65;;
79135;SDS011;68533;51.090;17.216;2024-03-08T05:35:27;32.88;;;12.82;;
79135;SDS011;68533;51.090;17.216;2024-03-08T05:38:54;35.35;;;12.00;;
79135;SDS011;68533;51.090;17.216;2024-03-08T05:42:21;36.97;;;13.73;;
79135;SDS011;68533;51.090;17.216;2024-03-08T05:45:47;36.03;;;15.45;;
79135;SDS011;68533;51.090;17.216;2024-03-08T05:49:15;33.25;;;15.60;;
79135;SDS011;68533;51.090;17.216;2024-03-08T05:52:41;38.60;;;16.52;;
79135;SDS011;68533;51.090;17.216;2024-03-08T05:56:06;34.53;;;15.07;;
79135;SDS011;68533;51.090;17.216;2024-03-08T05:59:32;36.30;;;14.65;;
79135;SDS011;68533;51.090;17.216;2024-03-08T06:02:56;34.33;;;16.08;;
79135;SDS011;68533;51.090;17.216;2024-03-08T06:06:25;34.42;;;13.88;;
79135;SDS011;68533;51.090;17.216;2024-03-08T06:09:50;41.20;;;14.85;;
79135;SDS011;68533;51.090;17.216;2024-03-08T06:13:17;38.40;;;15.68;;
79135;SDS011;68533;51.090;17.216;2024-03-08T06:16:45;50.38;;;19.48;;
79135;SDS011;68533;51.090;17.216;2024-03-08T06:20:10;38.08;;;16.42;;
79135;SDS011;68533;51.090;17.216;2024-03-08T06:27:02;45.08;;;20.65;;
79135;SDS011;68533;51.090;17.216;2024-03-08T06:30:28;34.10;;;15.10;;
79135;SDS011;68533;51.090;17.216;2024-03-08T06:33:53;44.22;;;18.30;;
79135;SDS011;68533;51.090;17.216;2024-03-08T06:37:18;41.58;;;18.35;;
79135;SDS011;68533;51.090;17.216;2024-03-08T06:40:43;29.83;;;11.57;;
79135;SDS011;68533;51.090;17.216;2024-03-08T06:44:10;35.03;;;15.10;;
79135;SDS011;68533;51.090;17.216;2024-03-08T06:47:36;28.38;;;13.35;;
79135;SDS011;68533;51.090;17.216;2024-03-08T06:51:03;25.25;;;13.85;;
79135;SDS011;68533;51.090;17.216;2024-03-08T06:54:28;28.42;;;13.27;;
79135;SDS011;68533;51.090;17.216;2024-03-08T06:57:52;34.13;;;13.15;;
79135;SDS011;68533;51.090;17.216;2024-03-08T07:01:18;32.33;;;15.15;;
79135;SDS011;68533;51.090;17.216;2024-03-08T07:04:42;34.92;;;12.30;;
79135;SDS011;68533;51.090;17.216;2024-03-08T07:08:08;30.33;;;13.52;;
79135;SDS011;68533;51.090;17.216;2024-03-08T07:11:34;30.00;;;12.68;;
79135;SDS011;68533;51.090;17.216;2024-03-08T07:14:58;29.48;;;13.15;;
79135;SDS011;68533;51.090;17.216;2024-03-08T07:18:26;29.08;;;13.05;;
79135;SDS011;68533;51.090;17.216;2024-03-08T07:21:50;31.55;;;13.02;;
79135;SDS011;68533;51.090;17.216;2024-03-08T07:25:24;28.55;;;13.23;;
79135;SDS011;68533;51.090;17.216;2024-03-08T07:28:48;24.88;;;11.90;;
79135;SDS011;68533;51.090;17.216;2024-03-08T07:32:14;29.65;;;14.57;;
79135;SDS011;68533;51.090;17.216;2024-03-08T07:35:39;34.38;;;12.70;;
79135;SDS011;68533;51.090;17.216;2024-03-08T07:39:04;31.10;;;12.45;;
79135;SDS011;68533;51.090;17.216;2024-03-08T07:42:28;30.13;;;14.20;;
79135;SDS011;68533;51.090;17.216;2024-03-08T07:45:56;29.40;;;13.05;;
79135;SDS011;68533;51.090;17.216;2024-03-08T07:49:21;31.67;;;14.02;;
79135;SDS011;68533;51.090;17.216;2024-03-08T07:52:49;29.15;;;14.07;;
79135;SDS011;68533;51.090;17.216;2024-03-08T07:56:15;27.98;;;12.98;;
79135;SDS011;68533;51.090;17.216;2024-03-08T07:59:39;27.25;;;12.77;;
79135;SDS011;68533;51.090;17.216;2024-03-08T08:03:04;26.08;;;12.27;;
79135;SDS011;68533;51.090;17.216;2024-03-08T08:06:29;24.10;;;11.70;;
79135;SDS011;68533;51.090;17.216;2024-03-08T08:09:55;22.70;;;12.02;;
79135;SDS011;68533;51.090;17.216;2024-03-08T08:13:31;27.83;;;12.07;;
79135;SDS011;68533;51.090;17.216;2024-03-08T08:16:56;27.17;;;12.45;;
79135;SDS011;68533;51.090;17.216;2024-03-08T08:20:26;25.02;;;12.05;;
79135;SDS011;68533;51.090;17.216;2024-03-08T08:23:53;28.17;;;13.23;;
79135;SDS011;68533;51.090;17.216;2024-03-08T08:27:19;26.25;;;11.88;;
79135;SDS011;68533;51.090;17.216;2024-03-08T08:30:44;19.00;;;10.60;;
79135;SDS011;68533;51.090;17.216;2024-03-08T08:34:12;26.98;;;13.52;;
79135;SDS011;68533;51.090;17.216;2024-03-08T08:37:39;22.92;;;12.63;;
79135;SDS011;68533;51.090;17.216;2024-03-08T08:41:04;24.35;;;12.00;;
79135;SDS011;68533;51.090;17.216;2024-03-08T08:44:29;27.13;;;13.05;;
79135;SDS011;68533;51.090;17.216;2024-03-08T08:47:59;26.60;;;13.50;;
79135;SDS011;68533;51.090;17.216;2024-03-08T08:51:24;23.85;;;11.38;;
79135;SDS011;68533;51.090;17.216;2024-03-08T08:54:49;27.48;;;12.63;;
79135;SDS011;68533;51.090;17.216;2024-03-08T08:58:14;23.48;;;11.40;;
79135;SDS011;68533;51.090;17.216;2024-03-08T09:01:47;19.92;;;11.02;;
79135;SDS011;68533;51.090;17.216;2024-03-08T09:05:14;26.55;;;12.00;;
79135;SDS011;68533;51.090;17.216;2024-03-08T09:08:39;20.42;;;10.98;;
79135;SDS011;68533;51.090;17.216;2024-03-08T09:12:07;22.38;;;11.55;;
79135;SDS011;68533;51.090;17.216;2024-03-08T09:15:32;26.80;;;13.50;;
79135;SDS011;68533;51.090;17.216;2024-03-08T09:18:58;23.40;;;11.90;;
79135;SDS011;68533;51.090;17.216;2024-03-08T09:22:26;19.42;;;10.38;;
79135;SDS011;68533;51.090;17.216;2024-03-08T09:25:56;20.20;;;11.43;;
79135;SDS011;68533;51.090;17.216;2024-03-08T09:29:21;21.98;;;10.70;;
79135;SDS011;68533;51.090;17.216;2024-03-08T09:32:47;17.98;;;10.38;;
79135;SDS011;68533;51.090;17.216;2024-03-08T09:36:13;20.67;;;10.43;;
79135;SDS011;68533;51.090;17.216;2024-03-08T09:39:41;21.63;;;10.23;;
79135;SDS011;68533;51.090;17.216;2024-03-08T09:43:09;20.23;;;10.88;;
79135;SDS011;68533;51.090;17.216;2024-03-08T09:46:34;18.25;;;10.88;;
79135;SDS011;68533;51.090;17.216;2024-03-08T09:50:00;21.52;;;10.00;;
79135;SDS011;68533;51.090;17.216;2024-03-08T09:53:29;21.02;;;10.77;;
79135;SDS011;68533;51.090;17.216;2024-03-08T09:56:53;19.17;;;9.98;;
79135;SDS011;68533;51.090;17.216;2024-03-08T10:00:40;21.30;;;10.90;;
79135;SDS011;68533;51.090;17.216;2024-03-08T10:04:05;17.75;;;9.63;;
79135;SDS011;68533;51.090;17.216;2024-03-08T10:07:31;18.13;;;8.88;;
79135;SDS011;68533;51.090;17.216;2024-03-08T10:10:56;16.55;;;9.40;;
79135;SDS011;68533;51.090;17.216;2024-03-08T10:14:25;19.55;;;10.23;;
79135;SDS011;68533;51.090;17.216;2024-03-08T10:17:55;19.40;;;10.00;;
79135;SDS011;68533;51.090;17.216;2024-03-08T10:21:22;18.50;;;10.38;;
79135;SDS011;68533;51.090;17.216;2024-03-08T10:24:46;18.13;;;10.75;;
79135;SDS011;68533;51.090;17.216;2024-03-08T10:28:12;15.55;;;9.15;;
79135;SDS011;68533;51.090;17.216;2024-03-08T10:31:43;13.85;;;8.38;;
79135;SDS011;68533;51.090;17.216;2024-03-08T10:35:09;19.25;;;9.60;;
79135;SDS011;68533;51.090;17.216;2024-03-08T10:42:05;18.73;;;8.77;;
79135;SDS011;68533;51.090;17.216;2024-03-08T10:47:00;19.60;;;8.63;;
79135;SDS011;68533;51.090;17.216;2024-03-08T10:53:38;15.93;;;8.00;;
79135;SDS011;68533;51.090;17.216;2024-03-08T10:57:06;15.93;;;8.63;;
79135;SDS011;68533;51.090;17.216;2024-03-08T11:00:35;18.00;;;7.95;;
79135;SDS011;68533;51.090;17.216;2024-03-08T11:04:00;13.15;;;7.00;;
79135;SDS011;68533;51.090;17.216;2024-03-08T11:07:36;12.25;;;6.35;;
79135;SDS011;68533;51.090;17.216;2024-03-08T11:11:22;15.65;;;7.25;;
79135;SDS011;68533;51.090;17.216;2024-03-08T11:14:56;15.02;;;7.88;;
79135;SDS011;68533;51.090;17.216;2024-03-08T11:18:22;15.88;;;8.05;;
79135;SDS011;68533;51.090;17.216;2024-03-08T11:22:00;16.50;;;8.32;;
79135;SDS011;68533;51.090;17.216;2024-03-08T11:32:50;17.30;;;9.43;;
79135;SDS011;68533;51.090;17.216;2024-03-08T11:36:24;12.88;;;8.18;;
79135;SDS011;68533;51.090;17.216;2024-03-08T11:39:55;15.30;;;8.77;;
79135;SDS011;68533;51.090;17.216;2024-03-08T11:43:23;13.98;;;8.70;;
79135;SDS011;68533;51.090;17.216;2024-03-08T11:46:48;15.13;;;8.25;;
79135;SDS011;68533;51.090;17.216;2024-03-08T11:50:14;17.15;;;9.93;;
79135;SDS011;68533;51.090;17.216;2024-03-08T11:53:43;15.55;;;8.95;;
79135;SDS011;68533;51.090;17.216;2024-03-08T11:57:18;16.58;;;8.50;;
79135;SDS011;68533;51.090;17.216;2024-03-08T12:00:43;17.63;;;9.73;;
79135;SDS011;68533;51.090;17.216;2024-03-08T12:04:11;17.70;;;9.63;;
79135;SDS011;68533;51.090;17.216;2024-03-08T12:07:42;17.42;;;9.75;;
79135;SDS011;68533;51.090;17.216;2024-03-08T12:11:08;21.48;;;9.40;;
79135;SDS011;68533;51.090;17.216;2024-03-08T12:14:35;20.58;;;10.82;;
79135;SDS011;68533;51.090;17.216;2024-03-08T12:18:00;17.10;;;9.38;;
79135;SDS011;68533;51.090;17.216;2024-03-08T12:21:26;17.60;;;9.38;;
79135;SDS011;68533;51.090;17.216;2024-03-08T12:25:03;14.15;;;7.75;;
79135;SDS011;68533;51.090;17.216;2024-03-08T12:28:44;16.23;;;8.07;;
79135;SDS011;68533;51.090;17.216;2024-03-08T12:32:10;21.50;;;8.98;;
79135;SDS011;68533;51.090;17.216;2024-03-08T12:35:39;14.68;;;8.48;;
79135;SDS011;68533;51.090;17.216;2024-03-08T12:39:07;15.25;;;7.85;;
79135;SDS011;68533;51.090;17.216;2024-03-08T12:43:23;13.85;;;8.43;;
79135;SDS011;68533;51.090;17.216;2024-03-08T12:47:17;17.30;;;9.00;;
79135;SDS011;68533;51.090;17.216;2024-03-08T12:50:50;15.45;;;8.75;;
79135;SDS011;68533;51.090;17.216;2024-03-08T12:54:35;14.73;;;8.38;;
79135;SDS011;68533;51.090;17.216;2024-03-08T12:58:00;16.80;;;9.15;;
79135;SDS011;68533;51.090;17.216;2024-03-08T13:01:32;14.02;;;8.10;;
79135;SDS011;68533;51.090;17.216;2024-03-08T13:05:02;13.95;;;7.75;;
79135;SDS011;68533;51.090;17.216;2024-03-08T13:08:29;17.70;;;9.02;;
79135;SDS011;68533;51.090;17.216;2024-03-08T13:11:54;15.98;;;9.15;;
79135;SDS011;68533;51.090;17.216;2024-03-08T13:15:21;15.75;;;8.90;;
79135;SDS011;68533;51.090;17.216;2024-03-08T13:18:47;16.05;;;9.02;;
79135;SDS011;68533;51.090;17.216;2024-03-08T13:22:11;12.40;;;7.07;;
79135;SDS011;68533;51.090;17.216;2024-03-08T13:25:38;18.38;;;9.30;;
79135;SDS011;68533;51.090;17.216;2024-03-08T13:29:21;16.83;;;8.98;;
79135;SDS011;68533;51.090;17.216;2024-03-08T13:32:59;13.60;;;8.10;;
79135;SDS011;68533;51.090;17.216;2024-03-08T13:36:27;18.83;;;9.02;;
79135;SDS011;68533;51.090;17.216;2024-03-08T13:39:52;20.42;;;8.68;;
79135;SDS011;68533;51.090;17.216;2024-03-08T13:43:18;15.82;;;8.15;;
79135;SDS011;68533;51.090;17.216;2024-03-08T13:46:46;13.20;;;7.20;;
79135;SDS011;68533;51.090;17.216;2024-03-08T13:50:11;11.70;;;7.45;;
79135;SDS011;68533;51.090;17.216;2024-03-08T13:53:38;12.88;;;6.70;;
79135;SDS011;68533;51.090;17.216;2024-03-08T13:57:04;14.52;;;8.02;;
79135;SDS011;68533;51.090;17.216;2024-03-08T14:00:30;14.95;;;7.30;;
79135;SDS011;68533;51.090;17.216;2024-03-08T14:04:01;11.90;;;7.10;;
79135;SDS011;68533;51.090;17.216;2024-03-08T14:07:27;13.55;;;6.97;;
79135;SDS011;68533;51.090;17.216;2024-03-08T14:10:55;16.40;;;7.90;;
79135;SDS011;68533;51.090;17.216;2024-03-08T14:14:22;16.88;;;8.02;;
79135;SDS011;68533;51.090;17.216;2024-03-08T14:17:54;16.42;;;8.45;;
79135;SDS011;68533;51.090;17.216;2024-03-08T14:21:20;14.05;;;7.68;;
79135;SDS011;68533;51.090;17.216;2024-03-08T14:24:46;16.05;;;8.40;;
79135;SDS011;68533;51.090;17.216;2024-03-08T14:28:14;15.23;;;7.78;;
79135;SDS011;68533;51.090;17.216;2024-03-08T14:31:39;14.25;;;7.47;;
79135;SDS011;68533;51.090;17.216;2024-03-08T14:35:09;14.90;;;7.28;;
79135;SDS011;68533;51.090;17.216;2024-03-08T14:38:44;13.43;;;7.97;;
79135;SDS011;68533;51.090;17.216;2024-03-08T14:42:10;16.25;;;7.65;;
79135;SDS011;68533;51.090;17.216;2024-03-08T14:45:34;16.25;;;7.90;;
79135;SDS011;68533;51.090;17.216;2024-03-08T14:48:59;15.98;;;8.48;;
79135;SDS011;68533;51.090;17.216;2024-03-08T14:52:24;14.80;;;7.78;;
79135;SDS011;68533;51.090;17.216;2024-03-08T14:55:51;20.17;;;8.88;;
79135;SDS011;68533;51.090;17.216;2024-03-08T14:59:16;14.80;;;8.05;;
79135;SDS011;68533;51.090;17.216;2024-03-08T15:02:55;15.35;;;7.82;;
79135;SDS011;68533;51.090;17.216;2024-03-08T15:06:25;15.32;;;7.50;;
79135;SDS011;68533;51.090;17.216;2024-03-08T15:09:51;16.08;;;7.82;;
79135;SDS011;68533;51.090;17.216;2024-03-08T15:13:24;15.43;;;7.43;;
79135;SDS011;68533;51.090;17.216;2024-03-08T15:16:50;15.25;;;8.23;;
79135;SDS011;68533;51.090;17.216;2024-03-08T15:20:15;17.20;;;8.27;;
79135;SDS011;68533;51.090;17.216;2024-03-08T15:23:47;17.98;;;8.70;;
79135;SDS011;68533;51.090;17.216;2024-03-08T15:27:11;17.52;;;8.20;;
79135;SDS011;68533;51.090;17.216;2024-03-08T15:30:40;20.20;;;9.27;;
79135;SDS011;68533;51.090;17.216;2024-03-08T15:34:06;14.27;;;7.20;;
79135;SDS011;68533;51.090;17.216;2024-03-08T15:37:32;16.20;;;7.88;;
79135;SDS011;68533;51.090;17.216;2024-03-08T15:40:57;12.82;;;6.75;;
79135;SDS011;68533;51.090;17.216;2024-03-08T15:44:22;15.65;;;7.63;;
79135;SDS011;68533;51.090;17.216;2024-03-08T15:47:48;14.88;;;8.00;;
79135;SDS011;68533;51.090;17.216;2024-03-08T15:51:14;18.60;;;7.60;;
79135;SDS011;68533;51.090;17.216;2024-03-08T15:54:39;14.30;;;6.43;;
79135;SDS011;68533;51.090;17.216;2024-03-08T15:58:06;14.18;;;7.15;;
79135;SDS011;68533;51.090;17.216;2024-03-08T16:01:32;15.93;;;7.22;;
79135;SDS011;68533;51.090;17.216;2024-03-08T16:04:57;13.98;;;6.80;;
79135;SDS011;68533;51.090;17.216;2024-03-08T16:08:28;20.38;;;8.05;;
79135;SDS011;68533;51.090;17.216;2024-03-08T16:11:57;16.35;;;7.85;;
79135;SDS011;68533;51.090;17.216;2024-03-08T16:15:31;16.10;;;7.25;;
79135;SDS011;68533;51.090;17.216;2024-03-08T16:18:57;12.98;;;6.18;;
79135;SDS011;68533;51.090;17.216;2024-03-08T16:22:22;14.35;;;7.55;;
79135;SDS011;68533;51.090;17.216;2024-03-08T16:25:47;16.88;;;8.50;;
79135;SDS011;68533;51.090;17.216;2024-03-08T16:29:12;14.68;;;6.43;;
79135;SDS011;68533;51.090;17.216;2024-03-08T16:32:41;16.77;;;7.85;;
79135;SDS011;68533;51.090;17.216;2024-03-08T16:36:10;18.73;;;7.70;;
79135;SDS011;68533;51.090;17.216;2024-03-08T16:39:36;17.25;;;7.88;;
79135;SDS011;68533;51.090;17.216;2024-03-08T16:43:04;20.23;;;9.20;;
79135;SDS011;68533;51.090;17.216;2024-03-08T16:46:31;23.65;;;10.38;;
79135;SDS011;68533;51.090;17.216;2024-03-08T16:49:58;20.08;;;9.20;;
79135;SDS011;68533;51.090;17.216;2024-03-08T16:53:23;26.75;;;11.45;;
79135;SDS011;68533;51.090;17.216;2024-03-08T16:56:48;35.20;;;13.00;;
79135;SDS011;68533;51.090;17.216;2024-03-08T17:00:15;27.98;;;12.23;;
79135;SDS011;68533;51.090;17.216;2024-03-08T17:03:42;23.45;;;10.80;;
79135;SDS011;68533;51.090;17.216;2024-03-08T17:07:07;20.63;;;8.30;;
79135;SDS011;68533;51.090;17.216;2024-03-08T17:10:34;20.48;;;9.30;;
79135;SDS011;68533;51.090;17.216;2024-03-08T17:13:59;18.92;;;9.73;;
79135;SDS011;68533;51.090;17.216;2024-03-08T17:17:24;18.65;;;8.35;;
79135;SDS011;68533;51.090;17.216;2024-03-08T17:20:49;28.25;;;10.88;;
79135;SDS011;68533;51.090;17.216;2024-03-08T17:24:14;24.30;;;11.60;;
79135;SDS011;68533;51.090;17.216;2024-03-08T17:27:44;28.75;;;11.73;;
79135;SDS011;68533;51.090;17.216;2024-03-08T17:31:09;23.58;;;11.02;;
79135;SDS011;68533;51.090;17.216;2024-03-08T17:34:34;26.30;;;10.52;;
79135;SDS011;68533;51.090;17.216;2024-03-08T17:38:02;31.05;;;11.82;;
79135;SDS011;68533;51.090;17.216;2024-03-08T17:41:27;34.42;;;14.23;;
79135;SDS011;68533;51.090;17.216;2024-03-08T17:44:54;31.50;;;14.20;;
79135;SDS011;68533;51.090;17.216;2024-03-08T17:48:19;32.90;;;15.65;;
79135;SDS011;68533;51.090;17.216;2024-03-08T17:51:44;36.88;;;14.18;;
79135;SDS011;68533;51.090;17.216;2024-03-08T17:55:13;30.52;;;13.60;;
79135;SDS011;68533;51.090;17.216;2024-03-08T17:58:38;26.60;;;12.82;;
79135;SDS011;68533;51.090;17.216;2024-03-08T18:02:03;29.33;;;12.23;;
79135;SDS011;68533;51.090;17.216;2024-03-08T18:05:31;27.65;;;11.82;;
79135;SDS011;68533;51.090;17.216;2024-03-08T18:08:58;31.65;;;12.13;;
79135;SDS011;68533;51.090;17.216;2024-03-08T18:12:25;32.35;;;13.48;;
79135;SDS011;68533;51.090;17.216;2024-03-08T18:15:50;40.25;;;15.55;;
79135;SDS011;68533;51.090;17.216;2024-03-08T18:19:17;38.30;;;16.70;;
79135;SDS011;68533;51.090;17.216;2024-03-08T18:22:55;39.75;;;17.00;;
79135;SDS011;68533;51.090;17.216;2024-03-08T18:26:22;37.85;;;16.58;;
79135;SDS011;68533;51.090;17.216;2024-03-08T18:29:47;43.58;;;17.88;;
79135;SDS011;68533;51.090;17.216;2024-03-08T18:33:14;43.88;;;18.52;;
79135;SDS011;68533;51.090;17.216;2024-03-08T18:36:40;53.72;;;21.30;;
79135;SDS011;68533;51.090;17.216;2024-03-08T18:40:08;33.45;;;15.98;;
79135;SDS011;68533;51.090;17.216;2024-03-08T18:43:34;46.20;;;17.58;;
79135;SDS011;68533;51.090;17.216;2024-03-08T18:46:59;43.40;;;16.85;;
79135;SDS011;68533;51.090;17.216;2024-03-08T18:50:24;39.47;;;15.25;;
79135;SDS011;68533;51.090;17.216;2024-03-08T18:53:49;34.25;;;15.63;;
79135;SDS011;68533;51.090;17.216;2024-03-08T18:57:16;41.25;;;17.48;;
79135;SDS011;68533;51.090;17.216;2024-03-08T19:00:42;46.80;;;20.25;;
79135;SDS011;68533;51.090;17.216;2024-03-08T19:04:13;54.75;;;22.48;;
79135;SDS011;68533;51.090;17.216;2024-03-08T19:07:45;49.63;;;20.85;;
79135;SDS011;68533;51.090;17.216;2024-03-08T19:11:15;50.38;;;21.80;;
79135;SDS011;68533;51.090;17.216;2024-03-08T19:14:41;47.03;;;19.15;;
79135;SDS011;68533;51.090;17.216;2024-03-08T19:18:06;46.00;;;18.83;;
79135;SDS011;68533;51.090;17.216;2024-03-08T19:21:31;47.80;;;19.33;;
79135;SDS011;68533;51.090;17.216;2024-03-08T19:24:56;48.63;;;19.65;;
79135;SDS011;68533;51.090;17.216;2024-03-08T19:31:49;52.22;;;19.70;;
79135;SDS011;68533;51.090;17.216;2024-03-08T19:35:15;58.03;;;19.40;;
79135;SDS011;68533;51.090;17.216;2024-03-08T19:38:43;43.42;;;18.77;;
79135;SDS011;68533;51.090;17.216;2024-03-08T19:42:09;58.00;;;20.73;;
79135;SDS011;68533;51.090;17.216;2024-03-08T19:45:36;52.65;;;21.15;;
79135;SDS011;68533;51.090;17.216;2024-03-08T19:49:05;57.63;;;21.98;;
79135;SDS011;68533;51.090;17.216;2024-03-08T19:52:34;70.20;;;21.83;;
79135;SDS011;68533;51.090;17.216;2024-03-08T19:55:59;59.05;;;22.58;;
79135;SDS011;68533;51.090;17.216;2024-03-08T19:59:30;59.17;;;20.65;;
79135;SDS011;68533;51.090;17.216;2024-03-08T20:02:57;51.33;;;21.33;;
79135;SDS011;68533;51.090;17.216;2024-03-08T20:06:23;64.63;;;23.85;;
79135;SDS011;68533;51.090;17.216;2024-03-08T20:09:48;60.47;;;23.48;;
79135;SDS011;68533;51.090;17.216;2024-03-08T20:13:13;58.67;;;22.58;;
79135;SDS011;68533;51.090;17.216;2024-03-08T20:16:39;50.20;;;20.30;;
79135;SDS011;68533;51.090;17.216;2024-03-08T20:20:13;41.25;;;16.30;;
79135;SDS011;68533;51.090;17.216;2024-03-08T20:23:38;40.67;;;17.52;;
79135;SDS011;68533;51.090;17.216;2024-03-08T20:27:03;42.63;;;16.88;;
79135;SDS011;68533;51.090;17.216;2024-03-08T20:30:31;44.35;;;18.45;;